Time;durP1;ratioP1;P1;durP2;ratioP2;P2;SDS_P1;SDS_P2;PMS_P1;PMS_P2;Temp;Humidity;BMP_temperature;BMP_pressure;BME280_temperature;BME280_humidity;BME280_pressure;Samples;Min_cycle;Max_cycle;Signal;HPM_P1;HPM_P2
2021/12/14 00:00:47;;;;;;;20.63;14.27;;;8.40;99.90;;;;;;5078801;28;20056;-58
2021/12/14 00:03:15;;;;;;;22.80;14.63;;;8.40;99.90;;;;;;5080671;28;20286;-58
2021/12/14 00:05:43;;;;;;;21.27;14.50;;;8.40;99.90;;;;;;5078640;28;20036;-58
2021/12/14 00:08:15;;;;;;;21.02;14.38;;;8.40;99.90;;;;;;5080303;28;20582;-58
2021/12/14 00:11:23;;;;;;;22.30;14.73;;;8.40;99.90;;;;;;5080315;28;20059;-58
2021/12/14 00:13:56;;;;;;;21.25;14.02;;;8.40;99.90;;;;;;5080192;28;20053;-58
2021/12/14 00:16:22;;;;;;;22.50;13.75;;;8.40;99.90;;;;;;5080599;28;20048;-58
2021/12/14 00:18:48;;;;;;;25.60;15.60;;;8.30;99.90;;;;;;5080245;28;20047;-58
2021/12/14 00:21:29;;;;;;;22.85;14.98;;;8.40;99.90;;;;;;5080637;28;20040;-58
2021/12/14 00:24:06;;;;;;;22.30;13.60;;;8.40;99.90;;;;;;5080653;28;20127;-59
2021/12/14 00:26:56;;;;;;;24.20;16.15;;;8.50;99.90;;;;;;5079853;28;20050;-59
2021/12/14 00:29:33;;;;;;;24.73;14.38;;;8.40;99.90;;;;;;5080433;28;20059;-59
2021/12/14 00:32:04;;;;;;;21.35;14.02;;;8.40;99.90;;;;;;5080010;28;20123;-58
2021/12/14 00:34:42;;;;;;;22.85;15.60;;;8.40;99.90;;;;;;5079867;28;20044;-60
2021/12/14 00:37:14;;;;;;;22.05;14.13;;;8.30;99.90;;;;;;5080136;28;20507;-58
2021/12/14 00:39:43;;;;;;;21.60;14.93;;;8.40;99.90;;;;;;5079754;28;20057;-59
2021/12/14 00:42:10;;;;;;;24.17;15.07;;;8.40;99.90;;;;;;5080054;28;20395;-59
2021/12/14 00:44:36;;;;;;;21.75;14.65;;;8.40;99.90;;;;;;5078167;28;20477;-59
2021/12/14 00:47:03;;;;;;;24.63;15.20;;;8.40;99.90;;;;;;5079977;28;20048;-59
2021/12/14 00:49:30;;;;;;;20.85;14.82;;;8.40;99.90;;;;;;5079861;28;20040;-59
2021/12/14 00:51:56;;;;;;;21.20;14.20;;;8.40;99.90;;;;;;5094080;28;20063;-58
2021/12/14 00:54:23;;;;;;;22.13;14.50;;;8.30;99.90;;;;;;5100219;28;20052;-58
2021/12/14 00:56:51;;;;;;;24.25;14.88;;;8.30;99.90;;;;;;5099434;28;20092;-59
2021/12/14 00:59:19;;;;;;;24.05;15.57;;;8.30;99.90;;;;;;5099800;28;20091;-59
2021/12/14 01:01:55;;;;;;;22.70;14.57;;;8.30;99.90;;;;;;5098266;28;20391;-58
2021/12/14 01:04:25;;;;;;;22.45;14.07;;;8.30;99.90;;;;;;5099318;28;20153;-59
2021/12/14 01:06:52;;;;;;;20.73;13.25;;;8.30;99.90;;;;;;5100023;28;20118;-59
2021/12/14 01:09:24;;;;;;;21.15;13.27;;;8.30;99.90;;;;;;5097967;28;20055;-59
2021/12/14 01:11:51;;;;;;;21.67;13.65;;;8.30;99.90;;;;;;5098576;28;20052;-59
2021/12/14 01:14:32;;;;;;;19.38;13.45;;;8.30;99.90;;;;;;5098785;28;20036;-58
2021/12/14 01:17:11;;;;;;;22.92;14.68;;;8.30;99.90;;;;;;5099674;28;20538;-58
2021/12/14 01:19:48;;;;;;;21.98;14.18;;;8.20;99.90;;;;;;5100035;28;20082;-58
2021/12/14 01:25:09;;;;;;;20.48;14.13;;;8.20;99.90;;;;;;5099409;28;20048;-57
2021/12/14 01:27:38;;;;;;;25.75;14.55;;;8.20;99.90;;;;;;5099046;28;20056;-58
2021/12/14 01:30:37;;;;;;;21.38;13.40;;;8.30;99.90;;;;;;5099437;28;20503;-59
2021/12/14 01:33:07;;;;;;;21.15;15.25;;;8.20;99.90;;;;;;5087871;28;20129;-58
2021/12/14 01:35:36;;;;;;;21.95;14.38;;;8.30;99.90;;;;;;5099064;28;20549;-59
2021/12/14 01:38:17;;;;;;;24.77;15.85;;;8.20;99.90;;;;;;5097874;28;20070;-59
2021/12/14 01:40:53;;;;;;;22.48;14.57;;;8.30;99.90;;;;;;5099263;28;20044;-59
2021/12/14 01:43:48;;;;;;;22.52;14.50;;;8.20;99.90;;;;;;5097524;28;20185;-58
2021/12/14 01:46:25;;;;;;;26.38;15.55;;;8.20;99.90;;;;;;5096077;28;20105;-59
2021/12/14 01:48:51;;;;;;;23.48;14.90;;;8.20;99.90;;;;;;5098480;28;20502;-58
2021/12/14 01:51:18;;;;;;;22.88;16.05;;;8.20;99.90;;;;;;5089442;28;20064;-58
2021/12/14 01:53:47;;;;;;;25.05;16.63;;;8.20;99.90;;;;;;5078652;28;20056;-58
2021/12/14 01:56:18;;;;;;;28.33;17.10;;;8.20;99.90;;;;;;5078517;28;20040;-59
2021/12/14 01:58:51;;;;;;;26.50;16.88;;;8.20;99.90;;;;;;5077726;28;20455;-59
2021/12/14 02:01:24;;;;;;;23.88;16.27;;;8.20;99.90;;;;;;5078294;28;20048;-58
2021/12/14 02:04:00;;;;;;;;;;;8.20;99.90;;;;;;5077955;28;20626;-59
2021/12/14 02:06:32;;;;;;;26.27;16.75;;;8.20;99.90;;;;;;5078654;28;19945;-58
2021/12/14 02:09:04;;;;;;;26.13;15.68;;;8.20;99.90;;;;;;5078160;28;20048;-58
2021/12/14 02:11:33;;;;;;;25.60;16.80;;;8.20;99.90;;;;;;5078717;28;20033;-58
2021/12/14 02:13:59;;;;;;;25.80;17.05;;;8.20;99.90;;;;;;5077759;28;20074;-58
2021/12/14 02:16:25;;;;;;;26.17;18.10;;;8.20;99.90;;;;;;5077742;28;20423;-59
2021/12/14 02:18:55;;;;;;;28.15;16.70;;;8.20;99.90;;;;;;5077878;28;20064;-59
2021/12/14 02:21:22;;;;;;;26.38;17.48;;;8.20;99.90;;;;;;5077110;28;20405;-59
2021/12/14 02:23:52;;;;;;;26.30;17.88;;;8.20;99.90;;;;;;5078405;28;20552;-59
2021/12/14 02:26:22;;;;;;;29.50;18.08;;;8.20;99.90;;;;;;5076663;28;20111;-59
2021/12/14 02:28:49;;;;;;;29.73;18.05;;;8.20;99.90;;;;;;5078198;28;20045;-59
2021/12/14 02:31:17;;;;;;;34.10;19.77;;;8.20;99.90;;;;;;5077733;28;20102;-59
2021/12/14 02:33:48;;;;;;;26.40;18.20;;;8.20;99.90;;;;;;5078139;28;20074;-59
2021/12/14 02:36:20;;;;;;;28.20;18.35;;;8.10;99.90;;;;;;5078143;28;20549;-59
2021/12/14 02:38:49;;;;;;;31.52;19.02;;;8.20;99.90;;;;;;5078167;28;20094;-59
2021/12/14 02:41:15;;;;;;;31.25;19.60;;;8.10;99.90;;;;;;5078580;28;20048;-58
2021/12/14 02:43:48;;;;;;;29.95;20.05;;;8.20;99.90;;;;;;5077670;28;20068;-59
2021/12/14 02:46:18;;;;;;;33.60;19.83;;;8.10;99.90;;;;;;5076843;28;20043;-59
2021/12/14 02:48:55;;;;;;;31.42;20.67;;;8.10;99.90;;;;;;5077918;28;20520;-59
2021/12/14 02:51:31;;;;;;;31.30;20.92;;;8.10;99.90;;;;;;5088083;28;20127;-58
2021/12/14 02:54:05;;;;;;;29.73;19.70;;;8.10;99.90;;;;;;5098566;28;20050;-59
2021/12/14 02:56:34;;;;;;;29.38;19.42;;;8.10;99.90;;;;;;5097800;28;20042;-58
2021/12/14 02:59:10;;;;;;;29.85;19.10;;;8.10;99.90;;;;;;5098003;28;20091;-59
2021/12/14 03:01:39;;;;;;;28.38;18.85;;;8.10;99.90;;;;;;5097849;28;20428;-59
2021/12/14 03:04:07;;;;;;;30.33;19.52;;;8.10;99.90;;;;;;5098191;28;20411;-58
2021/12/14 03:06:45;;;;;;;29.73;19.67;;;8.10;99.90;;;;;;5098187;28;20044;-59
2021/12/14 03:09:40;;;;;;;29.73;19.13;;;8.10;99.90;;;;;;5097699;28;20046;-60
2021/12/14 03:12:14;;;;;;;28.17;20.42;;;8.10;99.90;;;;;;5098139;28;20047;-59
2021/12/14 03:14:46;;;;;;;33.22;21.90;;;8.10;99.90;;;;;;5097427;28;20095;-59
2021/12/14 03:17:12;;;;;;;30.35;20.65;;;8.10;99.90;;;;;;5097919;28;20044;-59
2021/12/14 03:19:38;;;;;;;31.58;20.92;;;8.10;99.90;;;;;;5098282;28;20047;-59
2021/12/14 03:22:21;;;;;;;32.90;21.52;;;8.10;99.90;;;;;;5097588;28;20162;-59
2021/12/14 03:24:47;;;;;;;30.48;22.00;;;8.10;99.90;;;;;;5098044;28;20173;-59
2021/12/14 03:27:12;;;;;;;31.92;21.80;;;8.10;99.90;;;;;;5097367;28;20036;-59
2021/12/14 03:29:38;;;;;;;33.65;20.70;;;8.10;99.90;;;;;;5100445;28;20075;-58
2021/12/14 03:32:04;;;;;;;33.58;22.20;;;8.10;99.90;;;;;;5101583;28;20063;-59
2021/12/14 03:34:34;;;;;;;29.98;20.60;;;8.10;99.90;;;;;;5101247;28;20464;-60
2021/12/14 03:37:11;;;;;;;35.95;21.55;;;8.10;99.90;;;;;;5101723;28;20047;-59
2021/12/14 03:39:40;;;;;;;35.10;20.25;;;8.10;99.90;;;;;;5100674;28;20044;-59
2021/12/14 03:42:14;;;;;;;31.25;20.80;;;8.10;99.90;;;;;;5101237;28;20040;-59
2021/12/14 03:44:47;;;;;;;31.00;21.83;;;8.10;99.90;;;;;;5100594;28;20075;-59
2021/12/14 03:47:26;;;;;;;34.97;22.08;;;8.10;99.90;;;;;;5100921;28;20051;-59
2021/12/14 03:49:57;;;;;;;34.60;22.23;;;8.10;99.90;;;;;;5101220;28;20047;-58
2021/12/14 03:52:29;;;;;;;35.17;21.83;;;8.10;99.90;;;;;;5081770;28;20058;-59
2021/12/14 03:54:57;;;;;;;34.13;22.77;;;8.10;99.90;;;;;;5080528;28;20048;-58
2021/12/14 03:57:23;;;;;;;33.00;21.85;;;8.10;99.90;;;;;;5080317;28;20079;-58
2021/12/14 03:59:50;;;;;;;34.17;21.65;;;8.10;99.90;;;;;;5078763;28;20539;-61
2021/12/14 04:02:18;;;;;;;35.25;22.63;;;8.10;99.90;;;;;;5080630;28;20040;-59
2021/12/14 04:05:01;;;;;;;36.03;23.42;;;8.10;99.90;;;;;;5078454;28;20048;-58
2021/12/14 04:07:27;;;;;;;33.28;21.50;;;8.10;99.90;;;;;;5080705;28;20728;-58
2021/12/14 04:09:54;;;;;;;39.47;25.35;;;8.10;99.90;;;;;;5079922;28;20044;-59
2021/12/14 04:12:21;;;;;;;35.22;22.52;;;8.20;99.90;;;;;;5078925;28;20412;-59
2021/12/14 04:14:54;;;;;;;35.55;21.35;;;8.20;99.90;;;;;;5080027;28;20045;-59
2021/12/14 04:17:24;;;;;;;33.42;22.20;;;8.20;99.90;;;;;;5080161;28;20044;-59
2021/12/14 04:19:51;;;;;;;37.38;22.85;;;8.20;99.90;;;;;;5080236;28;20040;-60
2021/12/14 04:22:24;;;;;;;37.45;24.55;;;8.20;99.90;;;;;;5079757;28;20054;-58
2021/12/14 04:24:54;;;;;;;38.10;23.88;;;8.20;99.90;;;;;;5080165;28;20115;-59
2021/12/14 04:27:23;;;;;;;38.20;24.98;;;8.20;99.90;;;;;;5079634;28;20094;-59
2021/12/14 04:29:50;;;;;;;39.53;24.23;;;8.10;99.90;;;;;;5080155;28;20044;-58
2021/12/14 04:32:16;;;;;;;36.85;23.10;;;8.10;99.90;;;;;;5062129;28;20559;-58
2021/12/14 04:34:43;;;;;;;39.78;23.35;;;8.10;99.90;;;;;;5079562;28;20412;-59
2021/12/14 04:37:10;;;;;;;37.05;24.23;;;8.10;99.90;;;;;;5079998;28;20052;-58
2021/12/14 04:39:46;;;;;;;39.65;24.20;;;8.10;99.90;;;;;;5078620;28;20048;-59
2021/12/14 04:53:23;;;;;;;43.22;24.10;;;8.10;99.90;;;;;;5097876;28;20500;-59
2021/12/14 04:55:52;;;;;;;40.22;25.42;;;8.10;99.90;;;;;;5099527;28;20060;-59
2021/12/14 04:58:31;;;;;;;43.83;25.05;;;8.00;99.90;;;;;;5100069;28;20051;-58
2021/12/14 05:00:59;;;;;;;39.80;25.00;;;8.00;99.90;;;;;;5099087;28;20462;-58
2021/12/14 05:03:53;;;;;;;41.78;24.52;;;8.00;99.90;;;;;;5098135;28;20492;-58
2021/12/14 05:06:22;;;;;;;39.97;25.25;;;8.00;99.90;;;;;;5093262;28;20107;-57
2021/12/14 05:09:28;;;;;;;40.00;24.83;;;8.00;99.90;;;;;;5097748;28;20044;-59
2021/12/14 05:12:06;;;;;;;38.00;24.63;;;8.00;99.90;;;;;;5099579;28;20064;-59
2021/12/14 05:14:35;;;;;;;39.80;23.75;;;8.00;99.90;;;;;;5098736;28;20040;-58
2021/12/14 05:17:06;;;;;;;41.53;25.13;;;8.00;99.90;;;;;;5099020;28;20062;-59
2021/12/14 05:19:34;;;;;;;44.50;26.40;;;8.00;99.90;;;;;;5099244;28;20434;-58
2021/12/14 05:22:12;;;;;;;46.60;26.55;;;8.00;99.90;;;;;;5098844;28;20048;-59
2021/12/14 05:24:45;;;;;;;42.38;26.85;;;8.00;99.90;;;;;;5099480;28;20068;-58
2021/12/14 05:27:17;;;;;;;40.78;25.50;;;8.00;99.90;;;;;;5097240;28;20040;-58
2021/12/14 05:29:43;;;;;;;45.47;26.27;;;8.00;99.90;;;;;;5099092;28;20369;-58
2021/12/14 05:32:10;;;;;;;47.55;28.10;;;7.90;99.90;;;;;;5097751;28;20063;-58
2021/12/14 05:34:38;;;;;;;47.60;27.13;;;8.00;99.90;;;;;;5098969;28;20036;-58
2021/12/14 05:37:06;;;;;;;45.22;28.02;;;7.90;99.90;;;;;;5099271;28;20083;-58
2021/12/14 05:44:40;;;;;;;43.63;25.83;;;7.90;99.90;;;;;;5098303;28;20047;-58
2021/12/14 05:47:14;;;;;;;41.75;25.60;;;8.00;99.90;;;;;;5098521;28;20576;-61
2021/12/14 05:49:42;;;;;;;42.33;25.27;;;7.90;99.90;;;;;;5099140;28;20633;-59
2021/12/14 05:52:22;;;;;;;45.78;28.40;;;8.00;99.90;;;;;;5080548;28;20067;-58
2021/12/14 05:54:49;;;;;;;42.95;25.52;;;8.00;99.90;;;;;;5078546;28;21020;-58
2021/12/14 05:57:21;;;;;;;49.25;26.00;;;8.00;99.90;;;;;;5077678;28;20075;-58
2021/12/14 05:59:47;;;;;;;44.58;27.75;;;7.90;99.90;;;;;;5078179;28;20583;-59
2021/12/14 06:02:14;;;;;;;41.65;25.60;;;7.90;99.90;;;;;;5078151;28;20049;-58
2021/12/14 06:04:49;;;;;;;44.95;28.05;;;8.00;99.90;;;;;;5078000;28;20044;-57
2021/12/14 06:07:17;;;;;;;38.10;23.63;;;8.00;99.90;;;;;;5077046;28;20044;-58
2021/12/14 06:09:45;;;;;;;44.90;26.52;;;8.00;99.90;;;;;;5077605;28;20041;-58
2021/12/14 06:12:21;;;;;;;39.78;25.20;;;8.10;99.90;;;;;;5077973;28;20045;-57
2021/12/14 06:14:52;;;;;;;41.22;26.02;;;8.00;99.90;;;;;;5077885;28;20076;-57
2021/12/14 06:17:32;;;;;;;46.03;27.52;;;8.00;99.90;;;;;;5076668;28;20041;-58
2021/12/14 06:20:14;;;;;;;47.97;27.70;;;8.00;99.90;;;;;;5078175;28;20045;-58
2021/12/14 06:22:41;;;;;;;43.50;27.48;;;8.00;99.90;;;;;;5077604;28;20087;-58
2021/12/14 06:25:18;;;;;;;42.00;27.55;;;8.00;99.90;;;;;;5077891;28;20049;-58
2021/12/14 06:27:46;;;;;;;45.75;27.70;;;8.10;99.90;;;;;;5077925;28;20047;-58
2021/12/14 06:30:14;;;;;;;44.70;27.45;;;8.00;99.90;;;;;;5077782;28;20104;-58
2021/12/14 06:32:45;;;;;;;46.83;27.15;;;8.00;99.90;;;;;;5078216;28;20044;-58
2021/12/14 06:35:15;;;;;;;52.15;27.98;;;8.00;99.90;;;;;;5077707;28;20048;-59
2021/12/14 06:40:38;;;;;;;45.30;28.00;;;8.00;99.90;;;;;;5077807;28;20048;-59
2021/12/14 06:43:09;;;;;;;50.83;28.17;;;8.00;99.90;;;;;;5076011;28;20052;-59
2021/12/14 06:45:43;;;;;;;52.20;30.60;;;8.00;99.90;;;;;;5078242;28;20303;-59
2021/12/14 06:48:16;;;;;;;48.72;28.75;;;8.10;99.90;;;;;;5076288;28;20044;-59
2021/12/14 06:50:53;;;;;;;50.30;30.05;;;8.00;99.90;;;;;;5082539;28;20043;-59
2021/12/14 06:53:20;;;;;;;47.10;27.30;;;8.00;99.90;;;;;;5097564;28;20083;-60
2021/12/14 06:55:50;;;;;;;52.08;29.10;;;8.00;99.90;;;;;;5096738;28;20534;-58
2021/12/14 06:58:19;;;;;;;48.72;28.40;;;8.10;99.90;;;;;;5098461;28;20468;-58
2021/12/14 07:01:13;;;;;;;49.42;29.05;;;8.10;99.90;;;;;;5096031;28;20044;-59
2021/12/14 07:03:40;;;;;;;49.88;28.23;;;8.10;99.90;;;;;;5092217;28;20098;-59
2021/12/14 07:06:06;;;;;;;47.65;27.38;;;7.90;99.90;;;;;;5101479;28;20056;-60
2021/12/14 07:08:33;;;;;;;50.92;30.30;;;8.10;99.90;;;;;;5101469;28;20032;-57
2021/12/14 07:10:59;;;;;;;52.92;28.38;;;8.10;99.90;;;;;;5102140;28;20040;-58
2021/12/14 07:13:33;;;;;;;53.28;28.85;;;8.00;99.90;;;;;;5101638;28;20044;-58
2021/12/14 07:16:00;;;;;;;56.72;31.33;;;8.10;99.90;;;;;;5102392;28;20068;-58
2021/12/14 07:18:29;;;;;;;56.92;29.45;;;8.10;99.90;;;;;;5101327;28;20044;-59
2021/12/14 07:20:56;;;;;;;52.15;29.50;;;8.00;99.90;;;;;;5102207;28;20103;-58
2021/12/14 07:23:32;;;;;;;56.58;31.27;;;8.00;99.90;;;;;;5102005;28;20046;-61
2021/12/14 07:26:11;;;;;;;56.75;31.25;;;8.00;99.90;;;;;;5100580;28;20550;-58
2021/12/14 07:28:42;;;;;;;61.13;31.48;;;8.00;99.90;;;;;;5102054;28;20181;-59
2021/12/14 07:31:21;;;;;;;57.50;32.40;;;8.00;99.90;;;;;;5101359;28;20056;-59
2021/12/14 07:33:53;;;;;;;57.92;29.25;;;8.00;99.90;;;;;;5100249;28;20047;-58
2021/12/14 07:36:25;;;;;;;60.85;31.38;;;8.00;99.90;;;;;;5101549;28;20052;-58
2021/12/14 07:39:04;;;;;;;57.55;29.23;;;8.00;99.90;;;;;;5101262;28;20431;-58
2021/12/14 07:41:36;;;;;;;57.33;30.70;;;7.90;99.90;;;;;;5101496;28;20512;-57
2021/12/14 07:44:04;;;;;;;53.78;30.90;;;8.00;99.90;;;;;;5100665;28;20110;-58
2021/12/14 07:46:39;;;;;;;62.10;32.63;;;8.00;99.90;;;;;;5101334;28;20466;-59
2021/12/14 07:49:24;;;;;;;65.45;31.70;;;8.00;99.90;;;;;;5101157;28;20048;-58
2021/12/14 07:52:05;;;;;;;65.18;32.08;;;8.00;99.90;;;;;;5086492;28;20052;-58
2021/12/14 07:54:35;;;;;;;55.08;29.17;;;8.00;99.90;;;;;;5079444;28;20052;-58
2021/12/14 07:57:18;;;;;;;64.18;32.85;;;8.00;99.90;;;;;;5080343;28;20055;-57
2021/12/14 07:59:48;;;;;;;;;;;8.00;99.90;;;;;;5081270;28;20048;-60
2021/12/14 08:02:20;;;;;;;62.25;30.38;;;8.00;99.90;;;;;;5081059;28;19920;-58
2021/12/14 08:05:11;;;;;;;63.47;31.60;;;8.00;99.90;;;;;;5080330;28;20040;-58
2021/12/14 08:07:43;;;;;;;62.67;29.88;;;8.00;99.90;;;;;;5066329;28;20052;-58
2021/12/14 08:10:15;;;;;;;;;;;8.00;99.90;;;;;;5080892;28;20389;-58
2021/12/14 08:13:13;;;;;;;67.05;31.27;;;8.00;99.90;;;;;;5080332;28;20003;-58
2021/12/14 08:15:43;;;;;;;59.72;28.88;;;8.00;99.90;;;;;;5061733;28;20610;-62
2021/12/14 08:18:27;;;;;;;63.08;33.70;;;8.00;99.90;;;;;;5079904;28;20078;-58
2021/12/14 08:21:31;;;;;;;59.90;30.48;;;8.00;99.90;;;;;;5078652;28;20382;-57
2021/12/14 08:24:07;;;;;;;58.38;30.77;;;8.10;99.90;;;;;;4998168;28;20108;-58
2021/12/14 08:26:38;;;;;;;63.88;33.65;;;8.10;99.90;;;;;;4981385;28;20047;-58
2021/12/14 08:29:08;;;;;;;63.63;31.98;;;8.10;99.90;;;;;;5044273;28;20061;-58
2021/12/14 08:31:36;;;;;;;62.15;31.50;;;8.20;99.90;;;;;;5078222;28;20516;-58
2021/12/14 08:34:05;;;;;;;64.13;30.00;;;8.10;99.90;;;;;;5078372;28;20039;-58
2021/12/14 08:37:03;;;;;;;60.22;31.73;;;8.10;99.90;;;;;;5080040;28;20045;-57
2021/12/14 08:39:56;;;;;;;63.17;29.88;;;8.10;99.90;;;;;;5079452;28;20051;-58
2021/12/14 08:42:33;;;;;;;62.65;31.23;;;8.10;99.90;;;;;;5079672;28;20467;-58
2021/12/14 08:45:24;;;;;;;55.60;28.75;;;8.20;99.90;;;;;;5080129;28;20059;-58
2021/12/14 08:48:11;;;;;;;62.95;29.58;;;8.20;99.90;;;;;;5079732;28;20047;-58
2021/12/14 08:50:48;;;;;;;58.30;30.30;;;8.10;99.90;;;;;;5081505;28;20054;-58
2021/12/14 08:53:15;;;;;;;58.83;29.67;;;8.10;99.90;;;;;;5099663;28;20066;-58
2021/12/14 08:55:47;;;;;;;58.83;28.77;;;8.20;99.90;;;;;;5099588;28;20094;-58
2021/12/14 08:58:13;;;;;;;60.20;31.33;;;8.20;99.90;;;;;;5100206;28;20044;-58
2021/12/14 09:00:44;;;;;;;60.72;30.85;;;8.20;99.90;;;;;;5099329;28;20048;-58
2021/12/14 09:03:14;;;;;;;56.05;30.25;;;8.30;99.90;;;;;;5100102;28;20036;-58
2021/12/14 09:05:47;;;;;;;61.53;30.75;;;8.20;99.90;;;;;;5099190;28;20040;-63
2021/12/14 09:08:16;;;;;;;63.97;30.23;;;8.20;99.90;;;;;;5099575;28;20044;-58
2021/12/14 09:10:45;;;;;;;63.22;30.92;;;8.20;99.90;;;;;;5081586;28;20399;-58
2021/12/14 09:13:13;;;;;;;61.13;30.30;;;8.20;99.90;;;;;;5099247;28;20040;-58
2021/12/14 09:15:50;;;;;;;59.97;30.05;;;8.20;99.90;;;;;;5099796;28;20040;-58
2021/12/14 09:18:19;;;;;;;58.63;29.70;;;8.30;99.90;;;;;;5099007;28;20044;-58
2021/12/14 09:20:53;;;;;;;62.78;30.63;;;8.30;99.90;;;;;;5099374;28;20501;-58
2021/12/14 09:23:29;;;;;;;64.82;30.88;;;8.30;99.90;;;;;;5099194;28;20128;-58
2021/12/14 09:25:56;;;;;;;55.35;27.48;;;8.30;99.90;;;;;;5099107;28;20047;-58
2021/12/14 09:28:24;;;;;;;60.28;30.23;;;8.30;99.90;;;;;;5097846;28;20035;-58
2021/12/14 09:30:56;;;;;;;68.20;31.92;;;8.30;99.90;;;;;;5097564;28;20082;-59
2021/12/14 09:33:25;;;;;;;63.53;30.83;;;8.30;99.90;;;;;;5098381;28;20059;-58
2021/12/14 09:35:55;;;;;;;61.47;31.75;;;8.40;99.90;;;;;;5099146;28;20059;-58
2021/12/14 09:38:29;;;;;;;65.82;31.15;;;8.40;99.90;;;;;;5099395;28;20044;-58
2021/12/14 09:40:57;;;;;;;64.05;31.38;;;8.40;99.90;;;;;;5099544;28;20044;-58
2021/12/14 09:43:23;;;;;;;61.95;30.67;;;8.40;99.90;;;;;;5097487;28;20047;-58
2021/12/14 09:45:55;;;;;;;65.28;31.27;;;8.40;99.90;;;;;;5097848;28;20077;-58
2021/12/14 09:48:34;;;;;;;64.38;31.70;;;8.50;99.90;;;;;;5098665;28;20165;-58
2021/12/14 09:51:07;;;;;;;66.13;31.52;;;8.40;99.90;;;;;;5091530;28;20142;-58
2021/12/14 09:53:36;;;;;;;60.10;29.23;;;8.40;99.90;;;;;;5078935;28;20045;-58
2021/12/14 09:56:03;;;;;;;58.70;30.75;;;8.50;99.90;;;;;;5078302;28;20072;-57
2021/12/14 09:58:37;;;;;;;62.58;32.35;;;8.40;99.90;;;;;;5077585;28;20122;-58
2021/12/14 10:01:11;;;;;;;65.78;31.92;;;8.40;99.90;;;;;;5076445;28;20040;-58
2021/12/14 10:03:38;;;;;;;60.88;28.13;;;8.40;99.90;;;;;;5078583;28;20053;-58
2021/12/14 10:06:09;;;;;;;64.25;30.55;;;8.40;99.90;;;;;;5078001;28;20040;-58
2021/12/14 10:08:42;;;;;;;60.00;29.25;;;8.50;99.90;;;;;;5078568;28;20055;-59
2021/12/14 10:11:25;;;;;;;59.53;29.40;;;8.40;99.90;;;;;;5077329;28;20037;-58
2021/12/14 10:13:53;;;;;;;59.22;30.52;;;8.50;99.90;;;;;;5077739;28;20036;-58
2021/12/14 10:16:20;;;;;;;57.35;28.98;;;8.50;99.90;;;;;;5077080;28;20051;-58
2021/12/14 10:18:54;;;;;;;61.13;29.15;;;8.50;99.90;;;;;;5078223;28;20033;-59
2021/12/14 10:21:29;;;;;;;60.33;28.83;;;8.40;99.90;;;;;;5078208;28;20078;-59
2021/12/14 10:23:58;;;;;;;62.53;30.38;;;8.50;99.90;;;;;;5078916;28;20186;-58
2021/12/14 10:26:24;;;;;;;53.78;28.80;;;8.40;99.90;;;;;;5077944;28;20033;-58
2021/12/14 10:28:55;;;;;;;64.00;29.08;;;8.60;99.90;;;;;;5078211;28;20052;-58
2021/12/14 10:31:40;;;;;;;68.32;30.13;;;8.40;99.90;;;;;;5076316;28;20100;-59
2021/12/14 10:34:13;;;;;;;54.53;28.90;;;8.40;99.90;;;;;;5078144;28;20041;-58
2021/12/14 10:36:44;;;;;;;57.58;27.35;;;8.40;99.90;;;;;;5077060;28;20040;-59
2021/12/14 10:44:32;;;;;;;63.63;29.05;;;8.50;99.90;;;;;;5080843;28;20049;-58
2021/12/14 10:46:58;;;;;;;59.22;29.23;;;8.50;99.90;;;;;;5082026;28;20041;-58
2021/12/14 10:49:25;;;;;;;66.45;31.00;;;8.50;99.90;;;;;;5082447;28;20137;-59
2021/12/14 10:51:59;;;;;;;66.75;29.90;;;8.50;99.90;;;;;;5096019;28;20052;-59
2021/12/14 10:54:27;;;;;;;63.45;29.63;;;8.50;99.90;;;;;;5102341;28;20090;-59
2021/12/14 10:57:00;;;;;;;62.78;29.65;;;8.60;99.90;;;;;;5101511;28;20070;-58
2021/12/14 10:59:30;;;;;;;64.28;29.30;;;8.50;99.90;;;;;;5102110;28;20121;-59
2021/12/14 11:01:57;;;;;;;74.65;30.52;;;8.60;99.90;;;;;;5102032;28;20039;-59
2021/12/14 11:04:54;;;;;;;59.47;28.50;;;8.60;99.90;;;;;;5100395;28;20048;-59
2021/12/14 11:07:41;;;;;;;62.50;28.58;;;8.60;99.90;;;;;;5101602;28;20086;-59
2021/12/14 11:10:38;;;;;;;60.95;26.85;;;8.70;99.90;;;;;;5100421;28;20104;-57
2021/12/14 11:13:11;;;;;;;59.75;26.95;;;8.70;99.90;;;;;;5101241;28;20243;-58
2021/12/14 11:15:41;;;;;;;;;;;8.70;99.90;;;;;;5101211;28;20036;-58
2021/12/14 11:18:15;;;;;;;54.95;26.40;;;8.60;99.90;;;;;;5099789;28;19930;-58
2021/12/14 11:20:44;;;;;;;48.90;23.65;;;8.60;99.90;;;;;;5101535;28;20078;-58
2021/12/14 11:23:18;;;;;;;55.92;26.63;;;8.60;99.90;;;;;;5100240;28;20044;-58
2021/12/14 11:26:12;;;;;;;52.13;24.25;;;8.70;99.90;;;;;;5101378;28;20092;-58
2021/12/14 11:28:45;;;;;;;49.17;24.20;;;8.70;99.90;;;;;;5100002;28;20055;-58
2021/12/14 11:31:46;;;;;;;50.35;23.60;;;8.70;99.90;;;;;;5099479;28;20039;-58
2021/12/14 11:34:16;;;;;;;46.75;22.58;;;8.70;99.90;;;;;;5100986;28;20085;-58
2021/12/14 11:37:00;;;;;;;44.08;20.80;;;8.70;99.90;;;;;;5101355;28;20052;-58
2021/12/14 11:39:29;;;;;;;46.70;22.42;;;8.70;99.90;;;;;;5100537;28;20624;-58
2021/12/14 11:42:01;;;;;;;39.88;19.75;;;8.70;99.90;;;;;;5101393;28;20509;-58
2021/12/14 11:44:40;;;;;;;48.25;20.60;;;8.70;99.90;;;;;;5099341;28;20059;-58
2021/12/14 11:50:00;;;;;;;42.88;20.15;;;8.70;99.90;;;;;;5098831;28;20119;-58
2021/12/14 11:52:50;;;;;;;47.10;18.83;;;8.70;99.90;;;;;;5080784;28;20052;-57
2021/12/14 11:55:33;;;;;;;33.72;16.50;;;8.70;99.90;;;;;;5079421;28;20061;-57
2021/12/14 11:58:33;;;;;;;36.50;17.40;;;8.80;99.90;;;;;;5081026;28;20053;-58
2021/12/14 12:01:23;;;;;;;36.30;17.20;;;8.80;99.90;;;;;;5078909;28;20044;-59
2021/12/14 12:04:00;;;;;;;32.10;15.98;;;8.70;99.90;;;;;;5079033;28;20197;-59
2021/12/14 12:06:43;;;;;;;36.70;17.58;;;8.80;99.90;;;;;;5079274;28;20108;-56
2021/12/14 12:09:31;;;;;;;32.80;16.35;;;8.80;99.90;;;;;;5079647;28;20052;-58
2021/12/14 12:12:04;;;;;;;33.83;17.45;;;8.80;99.90;;;;;;5080123;28;20056;-57
2021/12/14 12:14:50;;;;;;;36.17;18.33;;;8.80;99.90;;;;;;5079931;28;20047;-57
2021/12/14 12:17:37;;;;;;;36.83;17.20;;;8.90;99.90;;;;;;5078701;28;20052;-57
2021/12/14 12:20:09;;;;;;;31.27;15.68;;;8.80;99.90;;;;;;5080374;28;20402;-58
2021/12/14 12:22:41;;;;;;;29.88;15.65;;;8.90;99.90;;;;;;5079230;28;20048;-57
2021/12/14 12:25:39;;;;;;;32.95;15.43;;;8.80;99.90;;;;;;5078865;28;20077;-57
2021/12/14 12:28:10;;;;;;;30.05;14.15;;;8.80;99.90;;;;;;5071854;28;20547;-56
2021/12/14 12:30:42;;;;;;;30.40;15.15;;;8.80;99.90;;;;;;5079777;28;20076;-58
2021/12/14 12:33:34;;;;;;;29.85;13.93;;;8.90;99.90;;;;;;5078444;28;20558;-58
2021/12/14 12:36:12;;;;;;;26.40;12.80;;;8.90;99.90;;;;;;5079838;28;20451;-58
2021/12/14 12:38:59;;;;;;;28.67;13.35;;;8.80;99.90;;;;;;5077995;28;20416;-58
2021/12/14 12:41:28;;;;;;;29.63;13.80;;;8.90;99.90;;;;;;5079853;28;20136;-58
2021/12/14 12:44:39;;;;;;;24.40;12.23;;;8.90;99.90;;;;;;5078874;28;20079;-58
2021/12/14 12:47:05;;;;;;;28.55;13.75;;;8.90;99.90;;;;;;5023863;28;20060;-57
2021/12/14 12:49:41;;;;;;;27.70;13.18;;;9.00;99.90;;;;;;5079747;28;20044;-58
2021/12/14 12:52:15;;;;;;;25.35;13.57;;;8.90;99.90;;;;;;5095581;28;20051;-57
2021/12/14 12:55:01;;;;;;;31.92;14.75;;;8.90;99.90;;;;;;5099675;28;20421;-58
2021/12/14 12:57:39;;;;;;;30.25;13.77;;;9.00;99.90;;;;;;5099630;28;20048;-57
2021/12/14 13:00:43;;;;;;;26.63;13.75;;;8.90;99.90;;;;;;5098722;28;20085;-57
2021/12/14 13:03:17;;;;;;;25.33;12.73;;;8.90;99.90;;;;;;5099460;28;20492;-58
2021/12/14 13:05:42;;;;;;;27.40;13.43;;;9.00;99.90;;;;;;5099012;28;20380;-58
2021/12/14 13:08:16;;;;;;;27.15;13.73;;;9.00;99.90;;;;;;5099258;28;20172;-58
2021/12/14 13:10:50;;;;;;;30.30;14.18;;;9.00;99.90;;;;;;5099719;28;20541;-58
2021/12/14 13:13:42;;;;;;;30.73;13.73;;;9.00;99.90;;;;;;5098484;28;20111;-58
2021/12/14 13:16:17;;;;;;;25.17;12.02;;;9.00;99.90;;;;;;5099515;28;20086;-58
2021/12/14 13:19:16;;;;;;;27.58;14.23;;;9.00;99.90;;;;;;5098696;28;20554;-59
2021/12/14 13:21:53;;;;;;;27.77;13.00;;;9.00;99.90;;;;;;5090384;28;20048;-58
2021/12/14 13:24:41;;;;;;;29.17;13.05;;;9.00;99.90;;;;;;5099063;28;20078;-58
2021/12/14 13:27:22;;;;;;;25.85;12.77;;;8.90;99.90;;;;;;5098687;28;20503;-59
2021/12/14 13:29:54;;;;;;;23.45;12.35;;;9.00;99.90;;;;;;5098712;28;20535;-58
2021/12/14 13:32:31;;;;;;;25.25;13.02;;;9.00;99.90;;;;;;5099393;28;20492;-59
2021/12/14 13:35:25;;;;;;;24.60;12.30;;;9.00;99.90;;;;;;5098506;28;20059;-57
2021/12/14 13:38:00;;;;;;;25.30;12.43;;;8.90;99.90;;;;;;5096795;28;20072;-58
2021/12/14 13:40:35;;;;;;;27.02;12.63;;;9.00;99.90;;;;;;5098963;28;20073;-57
2021/12/14 13:43:10;;;;;;;27.45;12.32;;;8.90;99.90;;;;;;5097134;28;20586;-58